sensor_id;sensor_type;location;lat;lon;timestamp;temperature;humidity
17128;DHT22;8679;50.842;4.322;2023-02-14T00:00:17;5.40;99.90
17128;DHT22;8679;50.842;4.322;2023-02-14T00:02:43;5.30;99.90
17128;DHT22;8679;50.842;4.322;2023-02-14T00:05:09;5.30;99.90
17128;DHT22;8679;50.842;4.322;2023-02-14T00:07:34;5.30;99.90
17128;DHT22;8679;50.842;4.322;2023-02-14T00:10:00;5.30;99.90
17128;DHT22;8679;50.842;4.322;2023-02-14T00:12:26;5.20;99.90
17128;DHT22;8679;50.842;4.322;2023-02-14T00:14:51;5.10;99.90
17128;DHT22;8679;50.842;4.322;2023-02-14T00:17:35;5.10;99.90
17128;DHT22;8679;50.842;4.322;2023-02-14T00:20:02;5.10;99.90
17128;DHT22;8679;50.842;4.322;2023-02-14T00:22:28;5.10;99.90
17128;DHT22;8679;50.842;4.322;2023-02-14T00:24:54;5.00;99.90
17128;DHT22;8679;50.842;4.322;2023-02-14T00:27:19;5.00;99.90
17128;DHT22;8679;50.842;4.322;2023-02-14T00:29:45;5.00;99.90
17128;DHT22;8679;50.842;4.322;2023-02-14T00:32:11;5.00;99.90
17128;DHT22;8679;50.842;4.322;2023-02-14T00:34:36;5.00;99.90
17128;DHT22;8679;50.842;4.322;2023-02-14T00:37:03;5.00;99.90
17128;DHT22;8679;50.842;4.322;2023-02-14T00:39:28;4.90;99.90
17128;DHT22;8679;50.842;4.322;2023-02-14T00:41:54;4.80;99.90
17128;DHT22;8679;50.842;4.322;2023-02-14T00:44:20;4.80;99.90
17128;DHT22;8679;50.842;4.322;2023-02-14T00:46:45;4.80;99.90
17128;DHT22;8679;50.842;4.322;2023-02-14T00:49:11;4.70;99.90
17128;DHT22;8679;50.842;4.322;2023-02-14T00:51:38;4.70;99.90
17128;DHT22;8679;50.842;4.322;2023-02-14T00:54:03;4.70;99.90
17128;DHT22;8679;50.842;4.322;2023-02-14T00:56:29;4.70;99.90
17128;DHT22;8679;50.842;4.322;2023-02-14T00:58:55;4.60;99.90
17128;DHT22;8679;50.842;4.322;2023-02-14T01:01:21;4.60;99.90
17128;DHT22;8679;50.842;4.322;2023-02-14T01:03:47;4.60;99.90
17128;DHT22;8679;50.842;4.322;2023-02-14T01:06:13;4.50;99.90
17128;DHT22;8679;50.842;4.322;2023-02-14T01:08:38;4.50;99.90
17128;DHT22;8679;50.842;4.322;2023-02-14T01:11:14;4.50;99.90
17128;DHT22;8679;50.842;4.322;2023-02-14T01:13:40;4.40;99.90
17128;DHT22;8679;50.842;4.322;2023-02-14T01:16:09;4.40;99.90
17128;DHT22;8679;50.842;4.322;2023-02-14T01:18:35;4.40;99.90
17128;DHT22;8679;50.842;4.322;2023-02-14T01:21:11;4.40;99.90
17128;DHT22;8679;50.842;4.322;2023-02-14T01:23:37;4.30;99.90
17128;DHT22;8679;50.842;4.322;2023-02-14T01:26:04;4.30;99.90
17128;DHT22;8679;50.842;4.322;2023-02-14T01:28:30;4.30;99.90
17128;DHT22;8679;50.842;4.322;2023-02-14T01:30:56;4.30;99.90
17128;DHT22;8679;50.842;4.322;2023-02-14T01:33:22;4.20;99.90
17128;DHT22;8679;50.842;4.322;2023-02-14T01:35:47;4.20;99.90
17128;DHT22;8679;50.842;4.322;2023-02-14T01:38:13;4.20;99.90
17128;DHT22;8679;50.842;4.322;2023-02-14T01:40:44;4.20;99.90
17128;DHT22;8679;50.842;4.322;2023-02-14T01:43:14;4.20;99.90
17128;DHT22;8679;50.842;4.322;2023-02-14T01:45:40;4.20;99.90
17128;DHT22;8679;50.842;4.322;2023-02-14T01:48:06;4.20;99.90
17128;DHT22;8679;50.842;4.322;2023-02-14T01:50:39;4.20;99.90
17128;DHT22;8679;50.842;4.322;2023-02-14T01:53:18;4.20;99.90
17128;DHT22;8679;50.842;4.322;2023-02-14T01:55:48;4.30;99.90
17128;DHT22;8679;50.842;4.322;2023-02-14T01:58:21;4.20;99.90
17128;DHT22;8679;50.842;4.322;2023-02-14T02:00:48;4.30;99.90
17128;DHT22;8679;50.842;4.322;2023-02-14T02:03:33;4.20;99.90
17128;DHT22;8679;50.842;4.322;2023-02-14T02:06:14;4.20;99.90
17128;DHT22;8679;50.842;4.322;2023-02-14T02:09:07;4.10;99.90
17128;DHT22;8679;50.842;4.322;2023-02-14T02:11:35;4.10;99.90
17128;DHT22;8679;50.842;4.322;2023-02-14T02:14:02;4.20;99.90
17128;DHT22;8679;50.842;4.322;2023-02-14T02:22:50;4.10;99.90
17128;DHT22;8679;50.842;4.322;2023-02-14T02:47:51;3.60;99.90
17128;DHT22;8679;50.842;4.322;2023-02-14T02:53:13;3.50;99.90
17128;DHT22;8679;50.842;4.322;2023-02-14T02:58:38;3.40;99.90
17128;DHT22;8679;50.842;4.322;2023-02-14T03:01:10;3.40;99.90
17128;DHT22;8679;50.842;4.322;2023-02-14T03:03:37;3.40;99.90
17128;DHT22;8679;50.842;4.322;2023-02-14T03:06:22;3.40;99.90
17128;DHT22;8679;50.842;4.322;2023-02-14T03:08:48;3.40;99.90
17128;DHT22;8679;50.842;4.322;2023-02-14T03:11:13;3.40;99.90
17128;DHT22;8679;50.842;4.322;2023-02-14T03:14:02;3.40;99.90
17128;DHT22;8679;50.842;4.322;2023-02-14T03:16:34;3.40;99.90
17128;DHT22;8679;50.842;4.322;2023-02-14T03:21:43;3.30;99.90
17128;DHT22;8679;50.842;4.322;2023-02-14T03:24:34;3.30;99.90
17128;DHT22;8679;50.842;4.322;2023-02-14T03:27:20;3.30;99.90
17128;DHT22;8679;50.842;4.322;2023-02-14T03:29:58;3.30;99.90
17128;DHT22;8679;50.842;4.322;2023-02-14T03:32:48;3.30;99.90
17128;DHT22;8679;50.842;4.322;2023-02-14T03:35:21;3.20;99.90
17128;DHT22;8679;50.842;4.322;2023-02-14T03:38:00;3.20;99.90
17128;DHT22;8679;50.842;4.322;2023-02-14T03:40:56;3.20;99.90
17128;DHT22;8679;50.842;4.322;2023-02-14T03:48:27;3.10;99.90
17128;DHT22;8679;50.842;4.322;2023-02-14T03:50:54;3.10;99.90
17128;DHT22;8679;50.842;4.322;2023-02-14T03:53:24;3.10;99.90
17128;DHT22;8679;50.842;4.322;2023-02-14T03:56:02;3.20;99.90
17128;DHT22;8679;50.842;4.322;2023-02-14T03:58:37;3.30;99.90
17128;DHT22;8679;50.842;4.322;2023-02-14T04:01:13;3.40;99.90
17128;DHT22;8679;50.842;4.322;2023-02-14T04:03:41;3.30;99.90
17128;DHT22;8679;50.842;4.322;2023-02-14T04:06:07;3.30;99.90
17128;DHT22;8679;50.842;4.322;2023-02-14T04:08:33;3.20;99.90
17128;DHT22;8679;50.842;4.322;2023-02-14T04:11:01;3.20;99.90
17128;DHT22;8679;50.842;4.322;2023-02-14T04:13:28;3.20;99.90
17128;DHT22;8679;50.842;4.322;2023-02-14T04:15:54;3.20;99.90
17128;DHT22;8679;50.842;4.322;2023-02-14T04:18:19;3.10;99.90
17128;DHT22;8679;50.842;4.322;2023-02-14T04:21:04;3.10;99.90
17128;DHT22;8679;50.842;4.322;2023-02-14T04:23:30;3.00;99.90
17128;DHT22;8679;50.842;4.322;2023-02-14T04:25:56;3.00;99.90
17128;DHT22;8679;50.842;4.322;2023-02-14T04:28:21;3.00;99.90
17128;DHT22;8679;50.842;4.322;2023-02-14T04:30:47;2.90;99.90
17128;DHT22;8679;50.842;4.322;2023-02-14T04:33:13;2.90;99.90
17128;DHT22;8679;50.842;4.322;2023-02-14T04:35:38;2.90;99.90
17128;DHT22;8679;50.842;4.322;2023-02-14T04:38:04;2.90;99.90
17128;DHT22;8679;50.842;4.322;2023-02-14T04:40:30;2.90;99.90
17128;DHT22;8679;50.842;4.322;2023-02-14T04:42:56;2.80;99.90
17128;DHT22;8679;50.842;4.322;2023-02-14T04:45:22;2.80;99.90
17128;DHT22;8679;50.842;4.322;2023-02-14T04:47:47;2.80;99.90
17128;DHT22;8679;50.842;4.322;2023-02-14T04:50:13;2.70;99.90
17128;DHT22;8679;50.842;4.322;2023-02-14T04:52:39;2.80;99.90
17128;DHT22;8679;50.842;4.322;2023-02-14T04:55:08;2.80;99.90
17128;DHT22;8679;50.842;4.322;2023-02-14T04:57:33;2.70;99.90
17128;DHT22;8679;50.842;4.322;2023-02-14T04:59:59;2.70;99.90
17128;DHT22;8679;50.842;4.322;2023-02-14T05:02:25;2.70;99.90
17128;DHT22;8679;50.842;4.322;2023-02-14T05:04:51;2.80;99.90
17128;DHT22;8679;50.842;4.322;2023-02-14T05:07:16;2.70;99.90
17128;DHT22;8679;50.842;4.322;2023-02-14T05:09:42;2.60;99.90
17128;DHT22;8679;50.842;4.322;2023-02-14T05:12:08;2.60;99.90
17128;DHT22;8679;50.842;4.322;2023-02-14T05:14:33;2.60;99.90
17128;DHT22;8679;50.842;4.322;2023-02-14T05:16:59;2.50;99.90
17128;DHT22;8679;50.842;4.322;2023-02-14T05:19:25;2.50;99.90
17128;DHT22;8679;50.842;4.322;2023-02-14T05:21:50;2.50;99.90
17128;DHT22;8679;50.842;4.322;2023-02-14T05:24:16;2.50;99.90
17128;DHT22;8679;50.842;4.322;2023-02-14T05:26:42;2.40;99.90
17128;DHT22;8679;50.842;4.322;2023-02-14T05:29:08;2.40;99.90
17128;DHT22;8679;50.842;4.322;2023-02-14T05:31:34;2.50;99.90
17128;DHT22;8679;50.842;4.322;2023-02-14T05:34:01;2.50;99.90
17128;DHT22;8679;50.842;4.322;2023-02-14T05:36:26;2.50;99.90
17128;DHT22;8679;50.842;4.322;2023-02-14T05:38:52;2.50;99.90
17128;DHT22;8679;50.842;4.322;2023-02-14T05:41:18;2.40;99.90
17128;DHT22;8679;50.842;4.322;2023-02-14T05:43:43;2.30;99.90
17128;DHT22;8679;50.842;4.322;2023-02-14T05:46:09;2.40;99.90
17128;DHT22;8679;50.842;4.322;2023-02-14T05:48:35;2.30;99.90
17128;DHT22;8679;50.842;4.322;2023-02-14T05:51:05;2.30;99.90
17128;DHT22;8679;50.842;4.322;2023-02-14T05:53:31;2.30;99.90
17128;DHT22;8679;50.842;4.322;2023-02-14T05:55:57;2.30;99.90
17128;DHT22;8679;50.842;4.322;2023-02-14T05:58:23;2.30;99.90
17128;DHT22;8679;50.842;4.322;2023-02-14T06:00:48;2.30;99.90
17128;DHT22;8679;50.842;4.322;2023-02-14T06:03:14;2.30;99.90
17128;DHT22;8679;50.842;4.322;2023-02-14T06:05:40;2.30;99.90
17128;DHT22;8679;50.842;4.322;2023-02-14T06:08:05;2.30;99.90
17128;DHT22;8679;50.842;4.322;2023-02-14T06:10:31;2.30;99.90
17128;DHT22;8679;50.842;4.322;2023-02-14T06:12:57;2.30;99.90
17128;DHT22;8679;50.842;4.322;2023-02-14T06:15:23;2.40;99.90
17128;DHT22;8679;50.842;4.322;2023-02-14T06:17:56;2.40;99.90
17128;DHT22;8679;50.842;4.322;2023-02-14T06:20:22;2.40;99.90
17128;DHT22;8679;50.842;4.322;2023-02-14T06:22:49;2.30;99.90
17128;DHT22;8679;50.842;4.322;2023-02-14T06:25:15;2.40;99.90
17128;DHT22;8679;50.842;4.322;2023-02-14T06:27:41;2.40;99.90
17128;DHT22;8679;50.842;4.322;2023-02-14T06:30:08;2.40;99.90
17128;DHT22;8679;50.842;4.322;2023-02-14T06:32:34;2.30;99.90
17128;DHT22;8679;50.842;4.322;2023-02-14T06:35:00;2.30;99.90
17128;DHT22;8679;50.842;4.322;2023-02-14T06:37:26;2.30;99.90
17128;DHT22;8679;50.842;4.322;2023-02-14T06:39:52;2.30;99.90
17128;DHT22;8679;50.842;4.322;2023-02-14T06:42:17;2.20;99.90
17128;DHT22;8679;50.842;4.322;2023-02-14T06:44:43;2.20;99.90
17128;DHT22;8679;50.842;4.322;2023-02-14T06:47:08;2.20;99.90
17128;DHT22;8679;50.842;4.322;2023-02-14T06:49:34;2.20;99.90
17128;DHT22;8679;50.842;4.322;2023-02-14T06:52:00;2.10;99.90
17128;DHT22;8679;50.842;4.322;2023-02-14T06:54:25;2.20;99.90
17128;DHT22;8679;50.842;4.322;2023-02-14T06:56:51;2.20;99.90
17128;DHT22;8679;50.842;4.322;2023-02-14T06:59:17;2.20;99.90
17128;DHT22;8679;50.842;4.322;2023-02-14T07:01:42;2.20;99.90
17128;DHT22;8679;50.842;4.322;2023-02-14T07:04:08;2.10;99.90
17128;DHT22;8679;50.842;4.322;2023-02-14T07:06:35;2.20;99.90
17128;DHT22;8679;50.842;4.322;2023-02-14T07:09:02;2.20;99.90
17128;DHT22;8679;50.842;4.322;2023-02-14T07:11:28;2.20;99.90
17128;DHT22;8679;50.842;4.322;2023-02-14T07:13:53;2.30;99.90
17128;DHT22;8679;50.842;4.322;2023-02-14T07:16:19;2.30;99.90
17128;DHT22;8679;50.842;4.322;2023-02-14T07:18:45;2.30;99.90
17128;DHT22;8679;50.842;4.322;2023-02-14T07:21:10;2.40;99.90
17128;DHT22;8679;50.842;4.322;2023-02-14T07:23:36;2.40;99.90
17128;DHT22;8679;50.842;4.322;2023-02-14T07:26:02;2.40;99.90
17128;DHT22;8679;50.842;4.322;2023-02-14T07:28:28;2.40;99.90
17128;DHT22;8679;50.842;4.322;2023-02-14T07:31:02;2.50;99.90
17128;DHT22;8679;50.842;4.322;2023-02-14T07:33:28;2.60;99.90
17128;DHT22;8679;50.842;4.322;2023-02-14T07:35:55;2.60;99.90
17128;DHT22;8679;50.842;4.322;2023-02-14T07:38:21;2.70;99.90
17128;DHT22;8679;50.842;4.322;2023-02-14T07:40:46;2.80;99.90
17128;DHT22;8679;50.842;4.322;2023-02-14T07:43:12;2.90;99.90
17128;DHT22;8679;50.842;4.322;2023-02-14T07:45:37;3.00;99.90
17128;DHT22;8679;50.842;4.322;2023-02-14T07:48:03;3.20;99.90
17128;DHT22;8679;50.842;4.322;2023-02-14T07:50:29;3.30;99.90
17128;DHT22;8679;50.842;4.322;2023-02-14T07:52:55;3.50;99.90
17128;DHT22;8679;50.842;4.322;2023-02-14T07:55:21;3.60;99.90
17128;DHT22;8679;50.842;4.322;2023-02-14T07:57:50;3.90;99.90
17128;DHT22;8679;50.842;4.322;2023-02-14T08:00:16;4.30;99.90
17128;DHT22;8679;50.842;4.322;2023-02-14T08:02:42;4.40;99.90
17128;DHT22;8679;50.842;4.322;2023-02-14T08:05:08;4.60;99.90
17128;DHT22;8679;50.842;4.322;2023-02-14T08:07:34;4.70;99.90
17128;DHT22;8679;50.842;4.322;2023-02-14T08:09:59;4.60;99.90
17128;DHT22;8679;50.842;4.322;2023-02-14T08:12:25;4.60;99.90
17128;DHT22;8679;50.842;4.322;2023-02-14T08:15:09;4.60;99.90
17128;DHT22;8679;50.842;4.322;2023-02-14T08:17:55;4.60;99.90
17128;DHT22;8679;50.842;4.322;2023-02-14T08:20:21;4.60;99.90
17128;DHT22;8679;50.842;4.322;2023-02-14T08:22:47;4.70;99.90
17128;DHT22;8679;50.842;4.322;2023-02-14T08:25:12;4.80;99.90
17128;DHT22;8679;50.842;4.322;2023-02-14T08:27:38;4.80;99.90
17128;DHT22;8679;50.842;4.322;2023-02-14T08:30:04;4.90;99.90
17128;DHT22;8679;50.842;4.322;2023-02-14T08:32:30;5.10;99.90
17128;DHT22;8679;50.842;4.322;2023-02-14T08:34:55;5.20;99.90
17128;DHT22;8679;50.842;4.322;2023-02-14T08:37:21;5.20;99.90
17128;DHT22;8679;50.842;4.322;2023-02-14T08:39:47;5.30;99.90
17128;DHT22;8679;50.842;4.322;2023-02-14T08:42:12;5.40;99.90
17128;DHT22;8679;50.842;4.322;2023-02-14T08:44:38;5.50;99.90
17128;DHT22;8679;50.842;4.322;2023-02-14T08:47:05;5.70;99.90
17128;DHT22;8679;50.842;4.322;2023-02-14T08:49:31;5.80;99.90
17128;DHT22;8679;50.842;4.322;2023-02-14T08:51:57;5.80;99.90
17128;DHT22;8679;50.842;4.322;2023-02-14T08:54:22;5.90;99.90
17128;DHT22;8679;50.842;4.322;2023-02-14T08:56:48;6.00;99.90
17128;DHT22;8679;50.842;4.322;2023-02-14T08:59:13;6.10;99.90
17128;DHT22;8679;50.842;4.322;2023-02-14T09:01:39;6.10;99.90
17128;DHT22;8679;50.842;4.322;2023-02-14T09:04:05;6.20;99.90
17128;DHT22;8679;50.842;4.322;2023-02-14T09:06:30;6.30;99.90
17128;DHT22;8679;50.842;4.322;2023-02-14T09:08:58;6.40;99.90
17128;DHT22;8679;50.842;4.322;2023-02-14T09:11:24;6.50;99.90
17128;DHT22;8679;50.842;4.322;2023-02-14T09:13:52;6.60;99.90
17128;DHT22;8679;50.842;4.322;2023-02-14T09:16:21;6.60;99.90
17128;DHT22;8679;50.842;4.322;2023-02-14T09:18:47;6.70;99.90
17128;DHT22;8679;50.842;4.322;2023-02-14T09:21:16;6.80;99.90
17128;DHT22;8679;50.842;4.322;2023-02-14T09:23:42;7.00;99.90
17128;DHT22;8679;50.842;4.322;2023-02-14T09:26:10;7.10;99.90
17128;DHT22;8679;50.842;4.322;2023-02-14T09:28:36;7.20;99.90
17128;DHT22;8679;50.842;4.322;2023-02-14T09:31:17;7.30;99.90
17128;DHT22;8679;50.842;4.322;2023-02-14T09:33:47;7.50;99.90
17128;DHT22;8679;50.842;4.322;2023-02-14T09:36:13;7.60;99.90
17128;DHT22;8679;50.842;4.322;2023-02-14T09:38:58;7.70;99.90
17128;DHT22;8679;50.842;4.322;2023-02-14T09:46:54;7.90;99.90
17128;DHT22;8679;50.842;4.322;2023-02-14T09:49:33;8.10;99.90
17128;DHT22;8679;50.842;4.322;2023-02-14T09:52:01;8.30;99.90
17128;DHT22;8679;50.842;4.322;2023-02-14T09:54:29;8.40;99.90
17128;DHT22;8679;50.842;4.322;2023-02-14T09:59:35;8.40;99.90
17128;DHT22;8679;50.842;4.322;2023-02-14T10:05:04;8.60;99.90
17128;DHT22;8679;50.842;4.322;2023-02-14T10:07:39;8.60;99.90
17128;DHT22;8679;50.842;4.322;2023-02-14T10:13:05;8.80;99.90
17128;DHT22;8679;50.842;4.322;2023-02-14T10:15:37;8.80;99.90
17128;DHT22;8679;50.842;4.322;2023-02-14T10:18:13;8.80;99.90
17128;DHT22;8679;50.842;4.322;2023-02-14T10:20:49;8.90;99.90
17128;DHT22;8679;50.842;4.322;2023-02-14T10:23:35;9.00;99.90
17128;DHT22;8679;50.842;4.322;2023-02-14T10:26:11;9.10;99.90
17128;DHT22;8679;50.842;4.322;2023-02-14T10:28:47;9.10;99.90
17128;DHT22;8679;50.842;4.322;2023-02-14T10:34:07;9.30;99.90
17128;DHT22;8679;50.842;4.322;2023-02-14T10:44:46;9.70;95.20
17128;DHT22;8679;50.842;4.322;2023-02-14T10:49:56;9.70;99.90
17128;DHT22;8679;50.842;4.322;2023-02-14T10:55:21;9.80;99.90
17128;DHT22;8679;50.842;4.322;2023-02-14T10:57:51;9.90;96.20
17128;DHT22;8679;50.842;4.322;2023-02-14T11:00:22;10.00;98.30
17128;DHT22;8679;50.842;4.322;2023-02-14T11:02:56;10.00;93.60
17128;DHT22;8679;50.842;4.322;2023-02-14T11:07:59;10.20;84.00
17128;DHT22;8679;50.842;4.322;2023-02-14T11:10:29;10.30;90.60
17128;DHT22;8679;50.842;4.322;2023-02-14T11:12:56;10.50;49.20
17128;DHT22;8679;50.842;4.322;2023-02-14T11:15:25;10.60;47.00
17128;DHT22;8679;50.842;4.322;2023-02-14T11:18:23;10.80;67.00
17128;DHT22;8679;50.842;4.322;2023-02-14T11:23:32;11.00;34.50
17128;DHT22;8679;50.842;4.322;2023-02-14T11:25:58;11.00;51.20
17128;DHT22;8679;50.842;4.322;2023-02-14T11:28:25;11.20;34.20
17128;DHT22;8679;50.842;4.322;2023-02-14T11:30:51;11.20;10.30
17128;DHT22;8679;50.842;4.322;2023-02-14T11:33:41;11.30;1.00
17128;DHT22;8679;50.842;4.322;2023-02-14T11:36:14;11.40;1.00
17128;DHT22;8679;50.842;4.322;2023-02-14T11:38:42;11.80;1.00
17128;DHT22;8679;50.842;4.322;2023-02-14T11:41:12;12.00;1.00
17128;DHT22;8679;50.842;4.322;2023-02-14T11:43:43;12.20;1.00
17128;DHT22;8679;50.842;4.322;2023-02-14T11:49:01;12.60;12.50
17128;DHT22;8679;50.842;4.322;2023-02-14T11:51:33;12.70;1.00
17128;DHT22;8679;50.842;4.322;2023-02-14T11:54:01;13.00;1.00
17128;DHT22;8679;50.842;4.322;2023-02-14T11:56:51;13.70;1.00
17128;DHT22;8679;50.842;4.322;2023-02-14T11:59:29;14.20;1.00
17128;DHT22;8679;50.842;4.322;2023-02-14T12:01:57;14.50;99.90
17128;DHT22;8679;50.842;4.322;2023-02-14T12:04:33;14.50;99.90
17128;DHT22;8679;50.842;4.322;2023-02-14T12:07:18;15.10;99.90
17128;DHT22;8679;50.842;4.322;2023-02-14T12:09:46;15.10;99.90
17128;DHT22;8679;50.842;4.322;2023-02-14T12:12:22;15.00;99.90
17128;DHT22;8679;50.842;4.322;2023-02-14T12:14:49;14.80;99.90
17128;DHT22;8679;50.842;4.322;2023-02-14T12:17:31;15.00;99.90
17128;DHT22;8679;50.842;4.322;2023-02-14T12:20:08;15.90;99.90
17128;DHT22;8679;50.842;4.322;2023-02-14T12:23:03;15.50;99.90
17128;DHT22;8679;50.842;4.322;2023-02-14T12:25:58;15.80;99.90
17128;DHT22;8679;50.842;4.322;2023-02-14T12:28:38;15.60;99.90
17128;DHT22;8679;50.842;4.322;2023-02-14T12:31:10;15.30;99.90
17128;DHT22;8679;50.842;4.322;2023-02-14T12:33:36;15.10;99.90
17128;DHT22;8679;50.842;4.322;2023-02-14T12:45:08;16.60;99.90
17128;DHT22;8679;50.842;4.322;2023-02-14T13:01:42;16.70;99.90
17128;DHT22;8679;50.842;4.322;2023-02-14T13:10:14;18.10;99.90
17128;DHT22;8679;50.842;4.322;2023-02-14T13:12:45;18.00;99.90
17128;DHT22;8679;50.842;4.322;2023-02-14T13:15:41;17.60;99.90
17128;DHT22;8679;50.842;4.322;2023-02-14T13:18:35;17.60;99.90
17128;DHT22;8679;50.842;4.322;2023-02-14T13:21:07;17.70;99.90
17128;DHT22;8679;50.842;4.322;2023-02-14T13:23:40;17.80;99.90
17128;DHT22;8679;50.842;4.322;2023-02-14T13:26:12;17.50;99.90
17128;DHT22;8679;50.842;4.322;2023-02-14T13:29:06;17.60;99.90
17128;DHT22;8679;50.842;4.322;2023-02-14T13:31:29;18.10;99.90
17128;DHT22;8679;50.842;4.322;2023-02-14T13:34:29;17.30;99.90
17128;DHT22;8679;50.842;4.322;2023-02-14T13:36:57;17.10;99.90
17128;DHT22;8679;50.842;4.322;2023-02-14T13:39:33;17.10;99.90
17128;DHT22;8679;50.842;4.322;2023-02-14T13:41:59;17.50;99.90
17128;DHT22;8679;50.842;4.322;2023-02-14T13:44:48;17.30;99.90
17128;DHT22;8679;50.842;4.322;2023-02-14T13:47:16;17.60;99.90
17128;DHT22;8679;50.842;4.322;2023-02-14T13:55:07;18.70;99.90
17128;DHT22;8679;50.842;4.322;2023-02-14T13:57:34;18.90;99.90
17128;DHT22;8679;50.842;4.322;2023-02-14T14:02:45;18.00;99.90
17128;DHT22;8679;50.842;4.322;2023-02-14T14:10:59;18.70;99.90
17128;DHT22;8679;50.842;4.322;2023-02-14T14:13:55;18.70;99.90
17128;DHT22;8679;50.842;4.322;2023-02-14T14:21:24;19.60;99.90
17128;DHT22;8679;50.842;4.322;2023-02-14T14:24:26;20.00;99.90
17128;DHT22;8679;50.842;4.322;2023-02-14T14:29:32;19.30;99.90
17128;DHT22;8679;50.842;4.322;2023-02-14T14:34:51;19.50;99.90
17128;DHT22;8679;50.842;4.322;2023-02-14T14:37:20;19.30;99.90
17128;DHT22;8679;50.842;4.322;2023-02-14T14:39:57;19.10;99.90
17128;DHT22;8679;50.842;4.322;2023-02-14T14:42:26;18.80;99.90
17128;DHT22;8679;50.842;4.322;2023-02-14T14:44:58;18.90;99.90
17128;DHT22;8679;50.842;4.322;2023-02-14T14:47:41;19.10;99.90
17128;DHT22;8679;50.842;4.322;2023-02-14T14:50:28;18.90;99.90
17128;DHT22;8679;50.842;4.322;2023-02-14T14:53:00;19.00;99.90
17128;DHT22;8679;50.842;4.322;2023-02-14T14:55:34;19.50;99.90
17128;DHT22;8679;50.842;4.322;2023-02-14T14:58:26;19.90;99.90
17128;DHT22;8679;50.842;4.322;2023-02-14T15:00:51;20.10;99.90
17128;DHT22;8679;50.842;4.322;2023-02-14T15:03:21;19.90;99.90
17128;DHT22;8679;50.842;4.322;2023-02-14T15:05:49;19.50;99.90
17128;DHT22;8679;50.842;4.322;2023-02-14T15:08:33;19.20;99.90
17128;DHT22;8679;50.842;4.322;2023-02-14T15:11:12;18.80;99.90
17128;DHT22;8679;50.842;4.322;2023-02-14T15:14:00;18.90;99.90
17128;DHT22;8679;50.842;4.322;2023-02-14T15:19:20;19.10;99.90
17128;DHT22;8679;50.842;4.322;2023-02-14T15:21:49;18.70;99.90
17128;DHT22;8679;50.842;4.322;2023-02-14T15:24:16;18.40;99.90
17128;DHT22;8679;50.842;4.322;2023-02-14T15:26:45;18.30;99.90
17128;DHT22;8679;50.842;4.322;2023-02-14T15:29:23;17.80;99.90
17128;DHT22;8679;50.842;4.322;2023-02-14T15:31:49;17.70;99.90
17128;DHT22;8679;50.842;4.322;2023-02-14T15:34:19;17.60;99.90
17128;DHT22;8679;50.842;4.322;2023-02-14T15:36:45;17.80;99.90
17128;DHT22;8679;50.842;4.322;2023-02-14T15:39:15;17.60;99.90
17128;DHT22;8679;50.842;4.322;2023-02-14T15:41:44;17.50;99.90
17128;DHT22;8679;50.842;4.322;2023-02-14T15:44:23;17.20;99.90
17128;DHT22;8679;50.842;4.322;2023-02-14T15:46:55;17.60;99.90
17128;DHT22;8679;50.842;4.322;2023-02-14T15:49:30;17.80;99.90
17128;DHT22;8679;50.842;4.322;2023-02-14T15:51:59;18.20;99.90
17128;DHT22;8679;50.842;4.322;2023-02-14T15:54:40;17.90;99.90
17128;DHT22;8679;50.842;4.322;2023-02-14T15:57:20;17.90;99.90
17128;DHT22;8679;50.842;4.322;2023-02-14T15:59:47;17.40;99.90
17128;DHT22;8679;50.842;4.322;2023-02-14T16:02:32;17.40;99.90
17128;DHT22;8679;50.842;4.322;2023-02-14T16:05:16;17.30;99.90
17128;DHT22;8679;50.842;4.322;2023-02-14T16:07:55;17.40;99.90
17128;DHT22;8679;50.842;4.322;2023-02-14T16:10:27;17.40;99.90
17128;DHT22;8679;50.842;4.322;2023-02-14T16:13:03;17.20;99.90
17128;DHT22;8679;50.842;4.322;2023-02-14T16:15:38;17.00;99.90
17128;DHT22;8679;50.842;4.322;2023-02-14T16:23:35;16.40;99.90
17128;DHT22;8679;50.842;4.322;2023-02-14T16:26:04;16.20;99.90
17128;DHT22;8679;50.842;4.322;2023-02-14T16:28:31;15.90;99.90
17128;DHT22;8679;50.842;4.322;2023-02-14T16:30:59;15.80;99.90
17128;DHT22;8679;50.842;4.322;2023-02-14T16:33:29;15.70;99.90
17128;DHT22;8679;50.842;4.322;2023-02-14T16:36:06;15.50;99.90
17128;DHT22;8679;50.842;4.322;2023-02-14T16:38:41;15.30;99.90
17128;DHT22;8679;50.842;4.322;2023-02-14T16:41:16;15.10;99.90
17128;DHT22;8679;50.842;4.322;2023-02-14T16:43:42;14.80;99.90
17128;DHT22;8679;50.842;4.322;2023-02-14T16:46:11;14.60;99.90
17128;DHT22;8679;50.842;4.322;2023-02-14T16:48:40;14.50;99.90
17128;DHT22;8679;50.842;4.322;2023-02-14T16:51:08;14.20;99.90
17128;DHT22;8679;50.842;4.322;2023-02-14T16:53:34;14.00;99.90
17128;DHT22;8679;50.842;4.322;2023-02-14T16:56:01;13.90;99.90
17128;DHT22;8679;50.842;4.322;2023-02-14T16:58:31;13.70;99.90
17128;DHT22;8679;50.842;4.322;2023-02-14T17:00:59;13.60;99.90
17128;DHT22;8679;50.842;4.322;2023-02-14T17:03:24;13.50;99.90
17128;DHT22;8679;50.842;4.322;2023-02-14T17:05:50;13.40;99.90
17128;DHT22;8679;50.842;4.322;2023-02-14T17:08:16;13.30;99.90
17128;DHT22;8679;50.842;4.322;2023-02-14T17:10:45;13.10;99.90
17128;DHT22;8679;50.842;4.322;2023-02-14T17:13:12;13.00;99.90
17128;DHT22;8679;50.842;4.322;2023-02-14T17:15:40;12.90;99.90
17128;DHT22;8679;50.842;4.322;2023-02-14T17:18:10;12.70;99.90
17128;DHT22;8679;50.842;4.322;2023-02-14T17:20:36;12.60;99.90
17128;DHT22;8679;50.842;4.322;2023-02-14T17:23:03;12.60;99.90
17128;DHT22;8679;50.842;4.322;2023-02-14T17:25:29;12.50;99.90
17128;DHT22;8679;50.842;4.322;2023-02-14T17:27:55;12.30;99.90
17128;DHT22;8679;50.842;4.322;2023-02-14T17:30:21;12.20;99.90
17128;DHT22;8679;50.842;4.322;2023-02-14T17:32:47;12.10;99.90
17128;DHT22;8679;50.842;4.322;2023-02-14T17:35:15;11.90;99.90
17128;DHT22;8679;50.842;4.322;2023-02-14T17:37:41;11.80;99.90
17128;DHT22;8679;50.842;4.322;2023-02-14T17:40:07;11.70;99.90
17128;DHT22;8679;50.842;4.322;2023-02-14T17:42:34;11.60;99.90
17128;DHT22;8679;50.842;4.322;2023-02-14T17:45:00;11.50;99.90
17128;DHT22;8679;50.842;4.322;2023-02-14T17:47:28;11.30;99.90
17128;DHT22;8679;50.842;4.322;2023-02-14T17:49:54;11.20;99.90
17128;DHT22;8679;50.842;4.322;2023-02-14T17:52:20;11.10;99.90
17128;DHT22;8679;50.842;4.322;2023-02-14T17:54:46;11.10;99.90
17128;DHT22;8679;50.842;4.322;2023-02-14T17:57:12;10.90;99.90
17128;DHT22;8679;50.842;4.322;2023-02-14T17:59:38;10.90;99.90
17128;DHT22;8679;50.842;4.322;2023-02-14T18:02:04;10.80;99.90
17128;DHT22;8679;50.842;4.322;2023-02-14T18:04:29;10.70;99.90
17128;DHT22;8679;50.842;4.322;2023-02-14T18:06:57;10.70;99.90
17128;DHT22;8679;50.842;4.322;2023-02-14T18:09:23;10.70;99.90
17128;DHT22;8679;50.842;4.322;2023-02-14T18:11:50;10.70;99.90
17128;DHT22;8679;50.842;4.322;2023-02-14T18:14:16;10.60;99.90
17128;DHT22;8679;50.842;4.322;2023-02-14T18:16:42;10.50;99.90
17128;DHT22;8679;50.842;4.322;2023-02-14T18:19:08;10.50;99.90
17128;DHT22;8679;50.842;4.322;2023-02-14T18:21:36;10.40;99.90
17128;DHT22;8679;50.842;4.322;2023-02-14T18:24:05;10.40;99.90
17128;DHT22;8679;50.842;4.322;2023-02-14T18:26:32;10.30;99.90
17128;DHT22;8679;50.842;4.322;2023-02-14T18:28:58;10.20;99.90
17128;DHT22;8679;50.842;4.322;2023-02-14T18:31:25;10.20;99.90
17128;DHT22;8679;50.842;4.322;2023-02-14T18:33:51;10.10;99.90